Terminal Aerodrome Forecast
Issued by NWS Bismarck, ND

Home | Current Version | Previous Version | Text Only | Print | Product List | Glossary On
Versions: 1 2 3 4 5 6 7 8 9 10 11 12 13 14 15 16 17 18
000
FTUS43 KBIS 252300
TAFISN
TAF
KISN 252323Z 2600/2624 33014KT P6SM OVC020
     FM260300 34008KT P6SM SCT020 BKN035
     FM260600 33006KT P6SM SCT035 BKN150=

USA.gov is the U.S. government's official web portal to all federal, state and local government web resources and services.